sensor_id;sensor_type;location;lat;lon;timestamp;P1;durP1;ratioP1;P2;durP2;ratioP2
46983;SDS011;34732;52.112;9.366;2023-03-04T09:41:01;29.15;;;4.32;;
46983;SDS011;34732;52.112;9.366;2023-03-04T09:44:41;15.18;;;3.00;;
46983;SDS011;34732;52.112;9.366;2023-03-04T09:48:03;41.70;;;4.53;;
46983;SDS011;34732;52.112;9.366;2023-03-04T09:51:36;13.43;;;2.30;;
46983;SDS011;34732;52.112;9.366;2023-03-04T09:55:23;9.10;;;2.42;;
46983;SDS011;34732;52.112;9.366;2023-03-04T09:58:48;7.22;;;2.17;;
46983;SDS011;34732;52.112;9.366;2023-03-04T10:06:05;9.82;;;2.58;;
46983;SDS011;34732;52.112;9.366;2023-03-04T10:13:15;5.88;;;2.40;;
46983;SDS011;34732;52.112;9.366;2023-03-04T10:16:45;8.45;;;2.10;;
46983;SDS011;34732;52.112;9.366;2023-03-04T10:20:18;5.68;;;2.47;;
46983;SDS011;34732;52.112;9.366;2023-03-04T10:23:43;9.18;;;2.95;;
46983;SDS011;34732;52.112;9.366;2023-03-04T10:27:12;8.65;;;2.17;;
46983;SDS011;34732;52.112;9.366;2023-03-04T10:34:39;8.85;;;2.50;;
46983;SDS011;34732;52.112;9.366;2023-03-04T10:38:03;10.30;;;3.03;;
46983;SDS011;34732;52.112;9.366;2023-03-04T10:41:29;6.43;;;2.72;;
46983;SDS011;34732;52.112;9.366;2023-03-04T10:48:18;8.90;;;3.00;;
46983;SDS011;34732;52.112;9.366;2023-03-04T10:51:46;7.45;;;2.20;;
46983;SDS011;34732;52.112;9.366;2023-03-04T10:55:17;5.88;;;3.00;;
46983;SDS011;34732;52.112;9.366;2023-03-04T10:58:38;4.88;;;2.35;;
46983;SDS011;34732;52.112;9.366;2023-03-04T11:02:24;7.88;;;2.40;;
46983;SDS011;34732;52.112;9.366;2023-03-04T11:09:27;7.20;;;2.60;;
46983;SDS011;34732;52.112;9.366;2023-03-04T11:16:30;6.13;;;2.35;;
46983;SDS011;34732;52.112;9.366;2023-03-04T11:20:11;5.57;;;2.08;;
46983;SDS011;34732;52.112;9.366;2023-03-04T11:31:07;6.03;;;2.17;;
46983;SDS011;34732;52.112;9.366;2023-03-04T11:34:38;6.90;;;2.58;;
46983;SDS011;34732;52.112;9.366;2023-03-04T11:41:32;11.82;;;2.95;;
46983;SDS011;34732;52.112;9.366;2023-03-04T11:45:21;5.40;;;2.40;;
46983;SDS011;34732;52.112;9.366;2023-03-04T12:07:08;6.45;;;2.35;;
46983;SDS011;34732;52.112;9.366;2023-03-04T12:10:41;7.05;;;2.35;;
46983;SDS011;34732;52.112;9.366;2023-03-04T12:17:47;5.07;;;2.05;;
46983;SDS011;34732;52.112;9.366;2023-03-04T12:25:36;10.93;;;2.88;;
46983;SDS011;34732;52.112;9.366;2023-03-04T12:33:39;10.13;;;2.88;;
46983;SDS011;34732;52.112;9.366;2023-03-04T12:55:37;11.52;;;2.85;;
46983;SDS011;34732;52.112;9.366;2023-03-04T12:59:04;12.03;;;2.43;;
46983;SDS011;34732;52.112;9.366;2023-03-04T13:10:11;8.35;;;2.08;;
46983;SDS011;34732;52.112;9.366;2023-03-04T13:13:40;9.07;;;2.30;;
46983;SDS011;34732;52.112;9.366;2023-03-04T13:32:40;6.32;;;2.25;;
46983;SDS011;34732;52.112;9.366;2023-03-04T13:40:31;5.97;;;1.88;;
46983;SDS011;34732;52.112;9.366;2023-03-04T13:43:59;7.38;;;2.25;;
46983;SDS011;34732;52.112;9.366;2023-03-04T13:47:39;6.05;;;1.90;;
46983;SDS011;34732;52.112;9.366;2023-03-04T13:51:47;8.52;;;2.08;;
46983;SDS011;34732;52.112;9.366;2023-03-04T14:02:40;4.50;;;2.10;;
46983;SDS011;34732;52.112;9.366;2023-03-04T14:06:39;3.42;;;1.70;;
46983;SDS011;34732;52.112;9.366;2023-03-04T14:13:39;3.47;;;1.33;;
46983;SDS011;34732;52.112;9.366;2023-03-04T14:17:02;4.63;;;1.63;;
46983;SDS011;34732;52.112;9.366;2023-03-04T14:20:37;4.85;;;1.77;;
46983;SDS011;34732;52.112;9.366;2023-03-04T14:24:04;4.47;;;1.13;;
46983;SDS011;34732;52.112;9.366;2023-03-04T14:27:29;4.90;;;1.48;;
46983;SDS011;34732;52.112;9.366;2023-03-04T14:30:55;4.85;;;1.38;;
46983;SDS011;34732;52.112;9.366;2023-03-04T14:34:25;5.15;;;2.17;;
46983;SDS011;34732;52.112;9.366;2023-03-04T14:38:02;3.90;;;1.30;;
46983;SDS011;34732;52.112;9.366;2023-03-04T14:41:29;4.13;;;1.65;;
46983;SDS011;34732;52.112;9.366;2023-03-04T14:44:56;3.72;;;1.10;;
46983;SDS011;34732;52.112;9.366;2023-03-04T14:48:21;3.50;;;1.48;;
46983;SDS011;34732;52.112;9.366;2023-03-04T14:51:59;4.35;;;1.40;;
46983;SDS011;34732;52.112;9.366;2023-03-04T14:55:23;3.75;;;1.30;;
46983;SDS011;34732;52.112;9.366;2023-03-04T14:58:54;3.40;;;1.25;;
46983;SDS011;34732;52.112;9.366;2023-03-04T15:02:23;2.58;;;1.20;;
46983;SDS011;34732;52.112;9.366;2023-03-04T15:05:53;3.97;;;1.55;;
46983;SDS011;34732;52.112;9.366;2023-03-04T15:09:20;2.47;;;1.00;;
46983;SDS011;34732;52.112;9.366;2023-03-04T15:12:59;3.20;;;1.30;;
46983;SDS011;34732;52.112;9.366;2023-03-04T15:16:26;3.72;;;1.40;;
46983;SDS011;34732;52.112;9.366;2023-03-04T15:23:52;3.75;;;1.13;;
46983;SDS011;34732;52.112;9.366;2023-03-04T15:27:23;4.22;;;1.58;;
46983;SDS011;34732;52.112;9.366;2023-03-04T15:30:49;2.58;;;1.23;;
46983;SDS011;34732;52.112;9.366;2023-03-04T15:34:19;2.97;;;1.45;;
46983;SDS011;34732;52.112;9.366;2023-03-04T15:37:45;4.45;;;1.25;;
46983;SDS011;34732;52.112;9.366;2023-03-04T15:41:19;2.72;;;1.30;;
46983;SDS011;34732;52.112;9.366;2023-03-04T15:44:45;2.15;;;1.30;;
46983;SDS011;34732;52.112;9.366;2023-03-04T15:48:15;8.48;;;1.40;;
46983;SDS011;34732;52.112;9.366;2023-03-04T15:51:37;8.30;;;1.48;;
46983;SDS011;34732;52.112;9.366;2023-03-04T15:59:09;8.25;;;1.67;;
46983;SDS011;34732;52.112;9.366;2023-03-04T16:02:33;6.43;;;1.40;;
46983;SDS011;34732;52.112;9.366;2023-03-04T16:05:55;7.30;;;1.75;;
46983;SDS011;34732;52.112;9.366;2023-03-04T16:09:24;6.03;;;1.80;;
46983;SDS011;34732;52.112;9.366;2023-03-04T16:12:47;9.70;;;1.63;;
46983;SDS011;34732;52.112;9.366;2023-03-04T16:16:13;4.30;;;1.40;;
46983;SDS011;34732;52.112;9.366;2023-03-04T16:19:43;12.02;;;1.63;;
46983;SDS011;34732;52.112;9.366;2023-03-04T16:23:13;5.78;;;1.20;;
46983;SDS011;34732;52.112;9.366;2023-03-04T16:26:42;6.75;;;1.50;;
46983;SDS011;34732;52.112;9.366;2023-03-04T16:30:12;4.78;;;1.35;;
46983;SDS011;34732;52.112;9.366;2023-03-04T16:33:36;7.32;;;1.30;;
46983;SDS011;34732;52.112;9.366;2023-03-04T16:37:06;3.45;;;1.23;;
46983;SDS011;34732;52.112;9.366;2023-03-04T16:40:41;7.00;;;1.95;;
46983;SDS011;34732;52.112;9.366;2023-03-04T16:44:05;5.18;;;1.80;;
46983;SDS011;34732;52.112;9.366;2023-03-04T16:47:47;7.65;;;1.48;;
46983;SDS011;34732;52.112;9.366;2023-03-04T16:51:13;4.45;;;1.30;;
46983;SDS011;34732;52.112;9.366;2023-03-04T16:54:40;4.35;;;1.20;;
46983;SDS011;34732;52.112;9.366;2023-03-04T16:58:04;4.93;;;1.20;;
46983;SDS011;34732;52.112;9.366;2023-03-04T17:01:31;5.22;;;1.98;;
46983;SDS011;34732;52.112;9.366;2023-03-04T17:05:02;3.95;;;1.20;;
46983;SDS011;34732;52.112;9.366;2023-03-04T17:08:27;5.15;;;1.23;;
46983;SDS011;34732;52.112;9.366;2023-03-04T17:16:14;5.95;;;1.20;;
46983;SDS011;34732;52.112;9.366;2023-03-04T17:19:40;11.07;;;1.30;;
46983;SDS011;34732;52.112;9.366;2023-03-04T17:23:03;8.02;;;1.52;;
46983;SDS011;34732;52.112;9.366;2023-03-04T17:26:24;8.65;;;1.35;;
46983;SDS011;34732;52.112;9.366;2023-03-04T17:34:07;5.93;;;1.40;;
46983;SDS011;34732;52.112;9.366;2023-03-04T17:37:28;5.82;;;1.52;;
46983;SDS011;34732;52.112;9.366;2023-03-04T17:40:53;8.52;;;1.52;;
46983;SDS011;34732;52.112;9.366;2023-03-04T17:44:20;8.02;;;1.70;;
46983;SDS011;34732;52.112;9.366;2023-03-04T17:47:44;5.25;;;1.17;;
46983;SDS011;34732;52.112;9.366;2023-03-04T17:51:07;4.78;;;1.10;;
46983;SDS011;34732;52.112;9.366;2023-03-04T17:54:31;6.75;;;1.65;;
46983;SDS011;34732;52.112;9.366;2023-03-04T17:57:56;8.23;;;1.83;;
46983;SDS011;34732;52.112;9.366;2023-03-04T18:04:42;7.90;;;1.88;;
46983;SDS011;34732;52.112;9.366;2023-03-04T18:08:10;7.97;;;1.83;;
46983;SDS011;34732;52.112;9.366;2023-03-04T18:11:35;4.05;;;1.30;;
46983;SDS011;34732;52.112;9.366;2023-03-04T18:15:00;3.95;;;1.38;;
46983;SDS011;34732;52.112;9.366;2023-03-04T18:22:19;8.02;;;1.27;;
46983;SDS011;34732;52.112;9.366;2023-03-04T18:25:43;5.43;;;1.52;;
46983;SDS011;34732;52.112;9.366;2023-03-04T18:29:09;6.38;;;1.20;;
46983;SDS011;34732;52.112;9.366;2023-03-04T18:32:33;5.57;;;1.65;;
46983;SDS011;34732;52.112;9.366;2023-03-04T18:36:01;3.80;;;1.13;;
46983;SDS011;34732;52.112;9.366;2023-03-04T18:42:52;6.07;;;0.97;;
46983;SDS011;34732;52.112;9.366;2023-03-04T18:46:25;6.90;;;1.52;;
46983;SDS011;34732;52.112;9.366;2023-03-04T18:49:59;4.65;;;1.25;;
46983;SDS011;34732;52.112;9.366;2023-03-04T18:57:45;5.40;;;1.40;;
46983;SDS011;34732;52.112;9.366;2023-03-04T19:01:12;5.00;;;1.42;;
46983;SDS011;34732;52.112;9.366;2023-03-04T19:04:41;3.55;;;1.48;;
46983;SDS011;34732;52.112;9.366;2023-03-04T19:08:05;6.72;;;1.30;;
46983;SDS011;34732;52.112;9.366;2023-03-04T19:11:31;6.00;;;1.77;;
46983;SDS011;34732;52.112;9.366;2023-03-04T19:14:58;4.40;;;1.73;;
46983;SDS011;34732;52.112;9.366;2023-03-04T19:18:24;5.38;;;1.55;;
46983;SDS011;34732;52.112;9.366;2023-03-04T19:21:50;8.25;;;1.38;;
46983;SDS011;34732;52.112;9.366;2023-03-04T19:25:14;5.75;;;1.60;;
46983;SDS011;34732;52.112;9.366;2023-03-04T19:28:38;6.68;;;1.63;;
46983;SDS011;34732;52.112;9.366;2023-03-04T19:32:01;7.15;;;2.05;;
46983;SDS011;34732;52.112;9.366;2023-03-04T19:35:24;6.25;;;2.20;;
46983;SDS011;34732;52.112;9.366;2023-03-04T19:38:48;5.28;;;1.90;;
46983;SDS011;34732;52.112;9.366;2023-03-04T19:42:17;7.25;;;2.17;;
46983;SDS011;34732;52.112;9.366;2023-03-04T19:45:41;4.55;;;1.60;;
46983;SDS011;34732;52.112;9.366;2023-03-04T19:49:04;3.33;;;1.73;;
46983;SDS011;34732;52.112;9.366;2023-03-04T19:52:26;5.88;;;1.77;;
46983;SDS011;34732;52.112;9.366;2023-03-04T19:55:52;4.13;;;2.10;;
46983;SDS011;34732;52.112;9.366;2023-03-04T19:59:16;4.10;;;1.73;;
46983;SDS011;34732;52.112;9.366;2023-03-04T20:02:38;7.63;;;2.45;;
46983;SDS011;34732;52.112;9.366;2023-03-04T20:06:05;6.03;;;2.05;;
46983;SDS011;34732;52.112;9.366;2023-03-04T20:09:31;5.18;;;1.70;;
46983;SDS011;34732;52.112;9.366;2023-03-04T20:12:59;4.57;;;2.00;;
46983;SDS011;34732;52.112;9.366;2023-03-04T20:16:25;5.05;;;1.98;;
46983;SDS011;34732;52.112;9.366;2023-03-04T20:19:50;3.72;;;1.60;;
46983;SDS011;34732;52.112;9.366;2023-03-04T20:23:16;4.65;;;1.80;;
46983;SDS011;34732;52.112;9.366;2023-03-04T20:26:41;3.97;;;1.95;;
46983;SDS011;34732;52.112;9.366;2023-03-04T20:30:05;5.13;;;2.67;;
46983;SDS011;34732;52.112;9.366;2023-03-04T20:37:28;4.53;;;2.65;;
46983;SDS011;34732;52.112;9.366;2023-03-04T20:40:54;5.80;;;2.35;;
46983;SDS011;34732;52.112;9.366;2023-03-04T20:44:17;3.30;;;1.73;;
46983;SDS011;34732;52.112;9.366;2023-03-04T20:51:11;2.78;;;1.80;;
46983;SDS011;34732;52.112;9.366;2023-03-04T20:54:33;4.80;;;1.67;;
46983;SDS011;34732;52.112;9.366;2023-03-04T20:57:55;5.95;;;2.05;;
46983;SDS011;34732;52.112;9.366;2023-03-04T21:01:18;6.50;;;2.38;;
46983;SDS011;34732;52.112;9.366;2023-03-04T21:04:39;6.85;;;2.17;;
46983;SDS011;34732;52.112;9.366;2023-03-04T21:08:05;5.55;;;2.30;;
46983;SDS011;34732;52.112;9.366;2023-03-04T21:11:32;3.45;;;1.83;;
46983;SDS011;34732;52.112;9.366;2023-03-04T21:22:53;3.60;;;1.95;;
46983;SDS011;34732;52.112;9.366;2023-03-04T21:26:22;4.78;;;1.77;;
46983;SDS011;34732;52.112;9.366;2023-03-04T21:29:48;3.92;;;2.00;;
46983;SDS011;34732;52.112;9.366;2023-03-04T21:33:15;6.07;;;2.22;;
46983;SDS011;34732;52.112;9.366;2023-03-04T21:36:41;5.57;;;2.10;;
46983;SDS011;34732;52.112;9.366;2023-03-04T21:40:07;5.68;;;2.20;;
46983;SDS011;34732;52.112;9.366;2023-03-04T21:43:34;7.53;;;2.42;;
46983;SDS011;34732;52.112;9.366;2023-03-04T21:46:57;6.63;;;2.15;;
46983;SDS011;34732;52.112;9.366;2023-03-04T21:50:19;5.72;;;1.92;;
46983;SDS011;34732;52.112;9.366;2023-03-04T21:53:43;4.93;;;1.67;;
46983;SDS011;34732;52.112;9.366;2023-03-04T21:57:09;5.70;;;1.80;;
46983;SDS011;34732;52.112;9.366;2023-03-04T22:00:35;4.93;;;2.03;;
